KPPQ

Details ICAO KPPQ
Name PITTSFIELD PENSTONE MUNI
Region United States
Timezone America/Chicago (UTC-5.0)
Plans Departing 0
Arriving 0
Stats Elevation 710 ft / 216 m (AMSL)
Location 39.638902° -90.778561°
Runways 1
Magnetic Variation 1.236° W
Sunrise 2018-05-26 10:41:55 UTC / 2018-05-26 05:41:55 Local
Sunset 2018-05-27 01:21:20 UTC / 2018-05-26 20:21:20 Local
Advertisement - Login to hide

Runways

ID Width Length Bearing (true) Bearing (mag) Surface Threshold Offset Overrun Length
13 60 ft / 18 m 4,000 ft / 1,219 m 135.05° 136.29° Asphalt 0 ft / 0 m 0 ft / 0 m
31 60 ft / 18 m 4,000 ft / 1,219 m 315.06° 316.30° Asphalt 0 ft / 0 m 0 ft / 0 m

Map

Weather


0- 5 10 15 20 25 30 35+ Temperature / ° C

Clouds and Precipitation
Forecast for 2018-05-26 06:00 UTC. Updated 6 hours ago

Ground ~20,000 ft ~40,000 ft Winds

METAR

KPPQ 261055Z AUTO 01015G20KT 10SM SCT017 SCT025 OVC042 21/20 A2988 RMK AO2 T02070201

TAF

Not found

Frequencies

Unicom 122.80 MHz CTAF/UNICOM
Warning: Do not use this data for real-world aviation or navigation. No guarantee of current accuracy is given.